Time;durP1;ratioP1;P1;durP2;ratioP2;P2;SDS_P1;SDS_P2;PMS_P1;PMS_P2;Temp;Humidity;BMP_temperature;BMP_pressure;BME280_temperature;BME280_humidity;BME280_pressure;Samples;Min_cycle;Max_cycle;Signal;HPM_P1;HPM_P2
2022/01/12 00:01:28;;;;;;;26.02;23.58;;;;;;;-1.03;100.00;103618.41;5207206;28;20021;-63
2022/01/12 00:03:59;;;;;;;25.92;23.55;;;;;;;-0.89;100.00;103630.69;5207098;28;20035;-64
2022/01/12 00:06:29;;;;;;;26.98;24.50;;;;;;;-0.82;100.00;103618.63;5207390;28;20021;-63
2022/01/12 00:09:05;;;;;;;25.60;23.40;;;;;;;-0.77;100.00;103625.28;5207281;28;20056;-64
2022/01/12 00:11:37;;;;;;;25.35;23.05;;;;;;;-0.73;100.00;103632.06;5207232;28;20099;-64
2022/01/12 00:14:08;;;;;;;27.35;25.08;;;;;;;-0.71;100.00;103637.25;5207278;28;20033;-64
2022/01/12 00:16:40;;;;;;;26.23;23.58;;;;;;;-0.60;100.00;103647.09;5207154;28;20025;-63
2022/01/12 00:19:11;;;;;;;25.23;23.00;;;;;;;-0.59;100.00;103638.16;5207325;28;20488;-64
2022/01/12 00:21:41;;;;;;;29.23;26.08;;;;;;;-0.78;100.00;103583.81;5253587;22;20055;-85
2022/01/12 00:24:11;;;;;;;26.88;24.35;;;;;;;-0.52;100.00;103619.00;5279189;28;20104;-83
2022/01/12 00:33:08;;;;;;;28.42;25.58;;;;;;;-0.58;100.00;103615.97;5297388;28;20023;-83
2022/01/12 00:35:25;;;;;;;26.55;24.30;;;;;;;-0.22;100.00;103655.66;5231363;28;20062;-85
2022/01/12 00:37:56;;;;;;;28.73;26.23;;;;;;;-0.25;100.00;103644.41;5278465;28;20216;-84
2022/01/12 00:40:26;;;;;;;28.52;24.83;;;;;;;-0.23;100.00;103674.34;5279584;28;20047;-85
2022/01/12 00:42:57;;;;;;;30.98;28.10;;;;;;;-0.13;100.00;103683.31;5260650;28;20041;-84
2022/01/12 00:45:28;;;;;;;25.20;22.90;;;;;;;-0.38;100.00;103636.56;5280746;28;20109;-84
2022/01/12 00:47:58;;;;;;;33.88;24.20;;;;;;;-0.06;100.00;103676.59;5262665;28;20024;-84
2022/01/12 00:50:29;;;;;;;26.42;23.75;;;;;;;-0.05;100.00;103676.47;5263110;28;20035;-84
2022/01/12 00:52:59;;;;;;;27.67;24.80;;;;;;;-0.57;100.00;103593.75;5263266;28;20023;-86
2022/01/12 00:55:34;;;;;;;23.73;20.52;;;;;;;0.02;100.00;103697.22;5263458;28;20020;-85
2022/01/12 00:58:05;;;;;;;26.85;24.25;;;;;;;-0.07;100.00;103677.56;5281794;28;20105;-85
2022/01/12 01:00:36;;;;;;;27.42;24.40;;;;;;;-0.35;100.00;103650.44;5280983;28;20023;-84
2022/01/12 01:03:07;;;;;;;26.98;24.35;;;;;;;0.01;100.00;103691.06;5279663;28;20026;-83
2022/01/12 01:05:39;;;;;;;25.58;23.05;;;;;;;0.09;100.00;103696.66;5259776;28;20032;-83
2022/01/12 01:08:09;;;;;;;30.15;27.35;;;;;;;-0.14;100.00;103649.75;5264214;28;20043;-83
2022/01/12 01:13:16;;;;;;;25.73;23.15;;;;;;;0.08;100.00;103680.84;5283693;28;20048;-84
2022/01/12 01:26:53;;;;;;;26.40;24.05;;;;;;;0.10;100.00;103689.53;5280477;28;20073;-84
2022/01/12 01:29:24;;;;;;;26.48;24.27;;;;;;;0.22;100.00;103699.22;5262562;28;20024;-82
2022/01/12 01:31:54;;;;;;;26.75;24.20;;;;;;;0.17;100.00;103675.66;5262019;28;20016;-84
2022/01/12 01:34:27;;;;;;;24.13;22.00;;;;;;;0.20;100.00;103677.25;5280154;28;20081;-84
2022/01/12 01:36:57;;;;;;;25.25;23.05;;;;;;;0.10;100.00;103647.88;5261832;28;20044;-84
2022/01/12 01:39:28;;;;;;;27.30;24.70;;;;;;;0.03;100.00;103648.44;5280227;28;20027;-85
2022/01/12 01:42:05;;;;;;;27.17;24.55;;;;;;;0.15;100.00;103677.59;5280986;28;20385;-84
2022/01/12 01:53:18;;;;;;;27.02;24.25;;;;;;;0.16;100.00;103691.72;5262543;28;20032;-84
2022/01/12 01:53:21;;;;;;;24.83;22.75;;;;;;;0.05;100.00;103679.25;5281089;28;20024;-84
2022/01/12 01:55:52;;;;;;;29.60;24.02;;;;;;;0.00;100.00;103665.50;5262501;28;20039;-85
2022/01/12 01:58:22;;;;;;;26.55;23.70;;;;;;;0.06;100.00;103664.16;5262135;28;20488;-86
2022/01/12 02:00:53;;;;;;;27.98;25.27;;;;;;;0.22;100.00;103683.28;5262295;28;20046;-85
2022/01/12 02:03:27;;;;;;;29.75;26.73;;;;;;;0.14;100.00;103664.41;5280469;28;20031;-85
2022/01/12 02:06:03;;;;;;;28.85;25.77;;;;;;;0.24;100.00;103673.38;5262316;28;20399;-85
2022/01/12 02:08:35;;;;;;;27.13;24.55;;;;;;;0.29;100.00;103676.50;5262067;28;20446;-86
2022/01/12 02:11:06;;;;;;;25.95;23.63;;;;;;;0.11;100.00;103643.41;5261709;28;20024;-85
2022/01/12 02:13:37;;;;;;;34.92;28.50;;;;;;;0.18;100.00;103660.56;5262259;28;20092;-85
2022/01/12 02:16:07;;;;;;;28.60;25.60;;;;;;;0.12;100.00;103650.41;5279925;28;20089;-84
2022/01/12 02:19:04;;;;;;;29.27;26.50;;;;;;;0.29;100.00;103671.19;5261606;28;20035;-86
2022/01/12 02:35:52;;;;;;;26.35;23.73;;;;;;;0.33;100.00;103701.88;5282035;28;20055;-85
2022/01/12 02:41:11;;;;;;;29.27;26.27;;;;;;;0.35;100.00;103723.88;5278776;28;20024;-85
2022/01/12 02:50:38;;;;;;;28.58;25.92;;;;;;;0.29;100.00;103695.97;5261038;28;20111;-85
2022/01/12 02:54:53;;;;;;;27.42;24.60;;;;;;;0.25;100.00;103697.19;5279601;28;20032;-87
2022/01/12 02:57:24;;;;;;;32.97;27.17;;;;;;;0.28;100.00;103702.28;5261136;28;20024;-85
2022/01/12 03:00:38;;;;;;;29.30;27.10;;;;;;;0.27;100.00;103705.03;5279025;28;20020;-85
2022/01/12 03:02:53;;;;;;;26.83;24.35;;;;;;;0.43;100.00;103736.59;5277394;28;20461;-85
2022/01/12 03:08:02;;;;;;;26.67;24.23;;;;;;;0.35;100.00;103726.53;5279852;28;20035;-85
2022/01/12 03:10:32;;;;;;;28.05;25.50;;;;;;;0.45;100.00;103753.25;5262005;28;20027;-86
2022/01/12 03:13:03;;;;;;;32.42;29.05;;;;;;;0.38;100.00;103734.28;5261380;28;20493;-85
2022/01/12 03:15:39;;;;;;;35.53;30.00;;;;;;;0.46;100.00;103750.50;5260525;28;20044;-85
2022/01/12 03:18:11;;;;;;;31.73;29.00;;;;;;;0.46;100.00;103754.97;5260656;28;20034;-85
2022/01/12 03:20:44;;;;;;;28.92;25.90;;;;;;;0.48;100.00;103753.03;5260775;28;20394;-85
2022/01/12 03:23:16;;;;;;;28.00;25.45;;;;;;;0.46;100.00;103758.47;5278603;28;20016;-86
2022/01/12 03:25:49;;;;;;;30.98;26.25;;;;;;;0.34;100.00;103736.31;5279244;28;20051;-85
2022/01/12 03:28:19;;;;;;;30.65;28.17;;;;;;;0.36;100.00;103738.00;5261121;28;20024;-86
2022/01/12 03:31:06;;;;;;;31.15;27.85;;;;;;;0.46;100.00;103753.16;5260022;28;20027;-85
2022/01/12 03:39:13;;;;;;;31.38;27.45;;;;;;;0.45;100.00;103759.44;5279674;28;20402;-85
2022/01/12 03:41:43;;;;;;;;;;;;;;;0.46;100.00;103761.13;5279407;28;20016;-86
2022/01/12 03:44:14;;;;;;;29.75;26.52;;;;;;;0.40;100.00;103735.00;5279069;28;20002;-85
2022/01/12 03:46:52;;;;;;;29.90;24.13;;;;;;;0.20;100.00;103701.16;5261925;28;20024;-88
2022/01/12 03:49:23;;;;;;;29.00;26.67;;;;;;;0.47;100.00;103761.97;5261848;28;20092;-86
2022/01/12 03:51:54;;;;;;;29.92;26.83;;;;;;;0.23;100.00;103722.19;5279256;28;20056;-86
2022/01/12 03:54:24;;;;;;;28.98;26.38;;;;;;;0.35;100.00;103731.84;5278822;28;20028;-85
2022/01/12 03:56:55;;;;;;;31.95;28.90;;;;;;;0.43;100.00;103733.94;5261468;28;20054;-86
2022/01/12 03:59:26;;;;;;;34.88;29.70;;;;;;;0.27;100.00;103723.66;5261069;28;20032;-87
2022/01/12 04:01:57;;;;;;;33.05;29.45;;;;;;;0.19;100.00;103694.16;5261083;28;20111;-86
2022/01/12 04:04:36;;;;;;;30.80;27.88;;;;;;;0.47;100.00;103746.88;5261476;28;20039;-87
2022/01/12 04:09:56;;;;;;;33.13;29.57;;;;;;;0.11;100.00;103696.53;5279167;28;20038;-88
2022/01/12 04:12:28;;;;;;;34.80;29.58;;;;;;;0.48;100.00;103768.97;5279297;28;20052;-88
2022/01/12 04:14:59;;;;;;;39.33;30.35;;;;;;;0.49;100.00;103778.66;5278465;28;20500;-86
2022/01/12 04:17:29;;;;;;;38.65;29.58;;;;;;;0.30;100.00;103756.13;5260416;28;20020;-85
2022/01/12 04:20:02;;;;;;;34.15;30.75;;;;;;;0.49;100.00;103786.63;5278717;28;20024;-85
2022/01/12 04:25:23;;;;;;;33.20;30.15;;;;;;;0.39;100.00;103778.50;5279256;28;20040;-86
2022/01/12 04:27:54;;;;;;;35.70;32.40;;;;;;;0.12;100.00;103727.47;5261488;28;20109;-86
2022/01/12 04:30:24;;;;;;;31.95;28.75;;;;;;;0.45;100.00;103775.38;5261138;28;20059;-86
2022/01/12 04:32:55;;;;;;;34.85;31.40;;;;;;;0.30;100.00;103747.31;5261947;28;20049;-86
2022/01/12 04:35:30;;;;;;;30.83;27.50;;;;;;;0.20;100.00;103741.03;5261475;28;20092;-89
2022/01/12 04:38:01;;;;;;;33.05;29.05;;;;;;;0.30;100.00;103749.97;5261857;28;20024;-85
2022/01/12 04:40:32;;;;;;;31.20;28.25;;;;;;;0.40;100.00;103766.91;5261543;28;20061;-87
2022/01/12 04:43:03;;;;;;;38.42;33.28;;;;;;;0.48;100.00;103768.97;5261334;28;20032;-86
2022/01/12 04:45:56;;;;;;;34.42;31.27;;;;;;;0.47;100.00;103761.97;5261211;28;20032;-85
2022/01/12 04:51:00;;;;;;;36.10;32.80;;;;;;;0.33;100.00;103733.78;5283928;28;20032;-86
2022/01/12 04:53:31;;;;;;;35.40;29.70;;;;;;;0.24;100.00;103723.88;5264868;28;20081;-87
2022/01/12 04:56:02;;;;;;;54.60;32.13;;;;;;;0.25;100.00;103730.88;5264699;28;20032;-86
2022/01/12 04:58:33;;;;;;;31.73;28.92;;;;;;;0.24;100.00;103716.75;5264383;28;20026;-86
2022/01/12 05:01:22;;;;;;;33.70;29.45;;;;;;;0.27;100.00;103707.69;5263829;28;20035;-85
2022/01/12 05:09:27;;;;;;;36.38;32.80;;;;;;;0.15;100.00;103695.34;5277268;28;19908;-86
2022/01/12 05:14:59;;;;;;;41.10;31.92;;;;;;;0.13;100.00;103691.97;5276132;28;20035;-85
2022/01/12 05:17:30;;;;;;;37.17;32.90;;;;;;;0.57;100.00;103768.28;5258126;28;20028;-86
2022/01/12 05:20:00;;;;;;;36.45;32.75;;;;;;;0.57;100.00;103766.47;5257817;28;20123;-85
2022/01/12 05:22:31;;;;;;;39.53;35.50;;;;;;;0.25;100.00;103721.09;5258420;28;20584;-85
2022/01/12 05:25:01;;;;;;;36.42;32.60;;;;;;;0.38;100.00;103736.94;5259755;28;20454;-85
2022/01/12 05:27:32;;;;;;;36.58;33.08;;;;;;;0.36;100.00;103725.56;5277595;28;20020;-85
2022/01/12 05:30:03;;;;;;;35.88;32.10;;;;;;;0.59;100.00;103767.16;5259354;28;20039;-85
2022/01/12 05:32:34;;;;;;;34.60;31.30;;;;;;;0.61;100.00;103769.72;5240174;28;20020;-86
2022/01/12 05:35:06;;;;;;;36.78;32.95;;;;;;;0.18;100.00;103701.28;5237406;28;20033;-85
2022/01/12 05:37:37;;;;;;;34.47;31.15;;;;;;;0.29;100.00;103724.34;5257469;28;20474;-84
2022/01/12 05:40:08;;;;;;;36.13;32.28;;;;;;;0.56;100.00;103756.78;5263506;28;20031;-85
2022/01/12 05:42:39;;;;;;;40.60;36.08;;;;;;;0.48;100.00;103748.56;5257808;28;20021;-84
2022/01/12 05:45:10;;;;;;;46.38;35.67;;;;;;;0.61;100.00;103769.72;5236250;28;20028;-85
2022/01/12 05:49:34;;;;;;;36.33;31.85;;;;;;;0.49;100.00;103749.41;5239001;28;20486;-84
2022/01/12 05:50:30;;;;;;;38.58;34.70;;;;;;;0.60;100.00;103783.97;5255570;28;20050;-85
2022/01/12 05:53:02;;;;;;;35.35;32.10;;;;;;;0.59;100.00;103793.75;5237606;28;20020;-84
2022/01/12 05:55:32;;;;;;;43.90;34.47;;;;;;;0.58;100.00;103797.38;5259989;28;20096;-85
2022/01/12 05:58:03;;;;;;;35.97;28.63;;;;;;;0.55;100.00;103794.13;5269997;28;20075;-85
2022/01/12 06:00:34;;;;;;;39.63;35.08;;;;;;;0.46;100.00;103765.59;5264568;28;20031;-85
2022/01/12 06:03:04;;;;;;;34.80;31.33;;;;;;;0.49;100.00;103776.00;5267332;28;20126;-85
2022/01/12 06:05:34;;;;;;;40.95;36.20;;;;;;;0.26;100.00;103729.94;5255897;28;20025;-85
2022/01/12 06:08:05;;;;;;;37.08;33.20;;;;;;;0.42;100.00;103754.34;5237494;28;20027;-85
2022/01/12 06:10:35;;;;;;;42.53;35.90;;;;;;;0.63;100.00;103787.25;5256825;28;20501;-85
2022/01/12 06:13:06;;;;;;;39.25;35.30;;;;;;;0.44;100.00;103767.53;5240308;28;20573;-85
2022/01/12 06:15:36;;;;;;;38.78;34.20;;;;;;;0.63;100.00;103800.53;5254425;28;20036;-84
2022/01/12 06:18:06;;;;;;;49.85;37.22;;;;;;;0.65;100.00;103808.41;5255677;28;20098;-85
2022/01/12 06:20:37;;;;;;;37.53;33.45;;;;;;;0.59;100.00;103793.75;5254912;28;20107;-85
2022/01/12 06:23:07;;;;;;;37.55;33.60;;;;;;;0.66;100.00;103807.44;5272799;22;20045;-62
2022/01/12 06:25:38;;;;;;;42.50;37.92;;;;;;;0.65;100.00;103811.91;5212937;28;20025;-61
2022/01/12 06:28:22;;;;;;;36.58;33.05;;;;;;;0.70;100.00;103813.38;5212941;28;20404;-64
2022/01/12 06:31:10;;;;;;;51.72;38.10;;;;;;;0.70;100.00;103816.88;5213944;28;20017;-64
2022/01/12 06:33:46;;;;;;;49.28;41.08;;;;;;;0.70;100.00;103822.19;5213420;28;20316;-64
2022/01/12 06:36:20;;;;;;;42.85;38.70;;;;;;;0.67;100.00;103827.75;5213068;28;20035;-61
2022/01/12 06:38:51;;;;;;;39.30;34.35;;;;;;;0.70;100.00;103835.50;5212642;28;20060;-61
2022/01/12 06:41:22;;;;;;;39.97;33.58;;;;;;;0.72;100.00;103846.00;5211441;28;20484;-61
2022/01/12 06:43:52;;;;;;;66.85;61.80;;;;;;;0.72;100.00;103851.34;5210447;28;20033;-59
2022/01/12 06:46:26;;;;;;;44.60;39.40;;;;;;;0.75;100.00;103856.41;5209901;28;20086;-59
2022/01/12 06:48:58;;;;;;;41.97;37.33;;;;;;;0.60;100.00;103834.50;5209267;28;20025;-60
2022/01/12 06:51:28;;;;;;;40.30;36.17;;;;;;;0.75;100.00;103856.41;5209474;28;20378;-62
2022/01/12 06:53:59;;;;;;;44.95;39.45;;;;;;;0.77;100.00;103865.13;5209456;28;20032;-60
2022/01/12 06:56:29;;;;;;;41.15;37.10;;;;;;;0.78;100.00;103861.50;5227561;28;20078;-61
2022/01/12 06:59:00;;;;;;;46.10;38.70;;;;;;;0.66;100.00;103856.16;5209884;28;20028;-62
2022/01/12 07:01:32;;;;;;;64.50;40.25;;;;;;;0.80;100.00;103872.88;5210423;28;20590;-62
2022/01/12 07:04:02;;;;;;;45.22;34.90;;;;;;;0.80;100.00;103862.25;5211168;28;20132;-62
2022/01/12 07:06:34;;;;;;;45.05;37.35;;;;;;;0.68;100.00;103832.94;5210915;28;20199;-62
2022/01/12 07:09:05;;;;;;;48.45;39.47;;;;;;;0.85;100.00;103862.75;5214108;28;20029;-62
2022/01/12 07:11:35;;;;;;;44.00;39.33;;;;;;;0.89;100.00;103866.81;5214087;28;20032;-62
2022/01/12 07:14:06;;;;;;;56.55;39.33;;;;;;;0.92;100.00;103879.91;5212425;28;20029;-62
2022/01/12 07:16:36;;;;;;;45.10;37.25;;;;;;;0.94;100.00;103867.31;5212712;28;20025;-61
2022/01/12 07:19:06;;;;;;;44.22;36.13;;;;;;;0.94;100.00;103873.50;5212494;28;20035;-58
2022/01/12 07:21:37;;;;;;;49.33;38.15;;;;;;;0.95;100.00;103869.03;5209014;28;20103;-57
2022/01/12 07:24:07;;;;;;;49.70;38.92;;;;;;;0.95;100.00;103869.88;5208690;28;20029;-55
2022/01/12 07:26:38;;;;;;;56.70;38.42;;;;;;;0.94;100.00;103867.31;5208854;28;20020;-54
2022/01/12 07:29:11;;;;;;;48.03;37.70;;;;;;;0.93;100.00;103873.59;5208808;28;20481;-56
2022/01/12 07:31:41;;;;;;;48.13;43.28;;;;;;;1.00;100.00;103883.66;5213887;28;20017;-62
2022/01/12 07:34:14;;;;;;;47.63;39.40;;;;;;;1.02;100.00;103870.25;5213406;28;20029;-61
2022/01/12 07:36:45;;;;;;;44.28;38.83;;;;;;;0.99;100.00;103884.63;5213145;28;20105;-62
2022/01/12 07:39:15;;;;;;;41.15;34.67;;;;;;;1.06;100.00;103886.81;5212292;28;20033;-61
2022/01/12 07:41:46;;;;;;;47.85;42.85;;;;;;;0.88;100.00;103865.97;5209847;28;20021;-62
2022/01/12 07:44:17;;;;;;;42.67;38.25;;;;;;;1.09;100.00;103895.41;5210822;28;20396;-62
2022/01/12 07:46:47;;;;;;;46.28;41.25;;;;;;;0.98;100.00;103871.44;5211042;28;20029;-62
2022/01/12 07:49:17;;;;;;;39.17;35.20;;;;;;;1.09;100.00;103895.41;5211888;28;20024;-62
2022/01/12 07:51:48;;;;;;;45.75;39.33;;;;;;;0.99;100.00;103889.94;5213064;28;20029;-60
2022/01/12 07:54:18;;;;;;;45.40;40.42;;;;;;;1.10;100.00;103907.75;5212419;28;20025;-61
2022/01/12 07:56:49;;;;;;;45.78;40.63;;;;;;;1.13;100.00;103920.84;5212999;28;20021;-62
2022/01/12 07:59:19;;;;;;;48.30;39.28;;;;;;;1.16;100.00;103927.72;5212804;28;20028;-61
2022/01/12 08:01:50;;;;;;;49.03;39.88;;;;;;;1.17;100.00;103930.25;5212396;28;20029;-62
2022/01/12 08:04:20;;;;;;;50.33;38.63;;;;;;;1.20;100.00;103939.81;5213389;28;20032;-62
2022/01/12 08:06:51;;;;;;;41.28;37.25;;;;;;;1.22;100.00;103949.38;5213465;28;20021;-61
2022/01/12 08:09:21;;;;;;;42.30;37.88;;;;;;;1.21;100.00;103945.03;5210618;28;20035;-62
2022/01/12 08:11:52;;;;;;;44.60;39.83;;;;;;;1.20;100.00;103947.81;5209899;28;20116;-62
2022/01/12 08:14:22;;;;;;;48.38;39.05;;;;;;;1.14;100.00;103943.81;5210924;28;20119;-62
2022/01/12 08:16:53;;;;;;;40.72;35.45;;;;;;;1.27;100.00;103965.84;5211661;28;20031;-62
2022/01/12 08:19:24;;;;;;;44.38;39.38;;;;;;;1.21;100.00;103958.31;5211761;28;20028;-62
2022/01/12 08:21:55;;;;;;;46.92;38.03;;;;;;;1.30;100.00;103970.09;5213590;28;20021;-62
2022/01/12 08:24:26;;;;;;;45.45;40.63;;;;;;;1.33;100.00;103970.72;5215955;28;20503;-62
2022/01/12 08:26:56;;;;;;;44.42;39.17;;;;;;;1.33;100.00;103976.03;5214959;28;20480;-61
2022/01/12 08:29:29;;;;;;;53.67;44.70;;;;;;;1.32;100.00;103969.00;5213247;28;20039;-62
2022/01/12 08:31:59;;;;;;;48.53;39.97;;;;;;;1.44;100.00;103982.34;5215274;28;20057;-62
2022/01/12 08:34:30;;;;;;;48.80;43.25;;;;;;;1.46;100.00;103988.38;5214515;28;20084;-62
2022/01/12 08:37:00;;;;;;;45.40;40.42;;;;;;;1.40;100.00;103971.09;5215385;28;20040;-62
2022/01/12 08:39:31;;;;;;;53.83;37.95;;;;;;;1.52;100.00;103985.25;5215551;28;20021;-61
2022/01/12 08:42:01;;;;;;;42.92;38.50;;;;;;;1.56;100.00;103973.38;5215988;28;20025;-62
2022/01/12 08:44:34;;;;;;;52.53;38.72;;;;;;;1.59;100.00;103973.16;5214885;28;20504;-62
2022/01/12 08:47:05;;;;;;;52.38;39.38;;;;;;;1.63;100.00;103980.78;5214886;28;20021;-60
2022/01/12 08:49:36;;;;;;;43.92;38.88;;;;;;;1.68;100.00;103983.94;5214562;28;20090;-62
2022/01/12 08:52:07;;;;;;;49.53;36.63;;;;;;;1.75;100.00;103981.59;5232052;28;20024;-63
2022/01/12 08:54:37;;;;;;;45.65;38.92;;;;;;;1.79;100.00;103983.06;5214727;28;20489;-61
2022/01/12 08:57:08;;;;;;;44.70;39.38;;;;;;;1.80;100.00;103982.09;5197913;28;20032;-62
2022/01/12 08:59:38;;;;;;;56.30;41.83;;;;;;;1.83;100.00;103979.19;5214327;28;20025;-62
2022/01/12 09:02:11;;;;;;;52.53;39.95;;;;;;;1.89;100.00;103984.03;5232694;28;20024;-61
2022/01/12 09:04:43;;;;;;;50.47;40.53;;;;;;;1.39;100.00;103933.91;5214468;28;20028;-62
2022/01/12 09:07:13;;;;;;;47.70;43.05;;;;;;;1.98;100.00;103996.63;5214466;28;20059;-62
2022/01/12 09:09:44;;;;;;;53.17;40.55;;;;;;;2.01;100.00;103993.72;5214433;28;20020;-61
2022/01/12 09:12:14;;;;;;;46.63;38.80;;;;;;;2.07;100.00;103996.84;5213978;28;20071;-61
2022/01/12 09:14:45;;;;;;;58.05;44.28;;;;;;;2.10;100.00;104002.78;5213836;28;20078;-60
2022/01/12 09:17:18;;;;;;;50.58;42.63;;;;;;;2.13;100.00;103999.03;5213696;28;20071;-61
2022/01/12 09:19:51;;;;;;;46.97;41.08;;;;;;;2.24;100.00;104013.22;5214446;28;20094;-61
2022/01/12 09:22:21;;;;;;;47.33;41.25;;;;;;;2.25;100.00;104011.38;5212966;28;20021;-60
2022/01/12 09:24:53;;;;;;;53.05;47.10;;;;;;;2.33;100.00;104025.78;5213450;28;20032;-62
2022/01/12 09:27:23;;;;;;;50.10;40.58;;;;;;;2.15;100.00;103989.09;5213676;28;20025;-59
2022/01/12 09:29:53;;;;;;;49.92;41.88;;;;;;;2.40;100.00;104020.78;5213862;28;20040;-60
2022/01/12 09:32:24;;;;;;;56.88;39.72;;;;;;;2.34;100.00;104037.28;5212529;28;20045;-60
2022/01/12 09:34:54;;;;;;;52.25;39.85;;;;;;;2.22;100.00;104044.47;5212320;28;20029;-60
2022/01/12 09:37:25;;;;;;;55.45;42.30;;;;;;;2.20;100.00;104032.22;5213391;28;20065;-60
2022/01/12 09:39:55;;;;;;;62.92;40.85;;;;;;;2.33;100.00;104059.59;5230708;28;20409;-60
2022/01/12 09:42:26;;;;;;;49.90;41.65;;;;;;;2.36;100.00;104057.53;5212307;28;20024;-60
2022/01/12 09:44:57;;;;;;;53.17;42.58;;;;;;;2.32;100.00;104049.91;5212328;28;20029;-60
2022/01/12 09:47:28;;;;;;;52.10;42.95;;;;;;;2.35;100.00;104055.84;5212486;28;20029;-60
2022/01/12 09:50:00;;;;;;;60.17;46.92;;;;;;;2.28;100.00;104038.66;5230105;28;20036;-59
2022/01/12 09:52:31;;;;;;;62.60;45.85;;;;;;;2.49;100.00;104057.41;5212423;28;20029;-60
2022/01/12 09:55:03;;;;;;;57.47;46.72;;;;;;;2.47;100.00;104040.66;5211832;28;20036;-60
2022/01/12 09:57:33;;;;;;;57.63;45.28;;;;;;;2.58;100.00;104051.31;5212090;28;20429;-61
2022/01/12 10:00:06;;;;;;;63.40;47.63;;;;;;;2.63;100.00;104054.44;5211374;28;20021;-61
2022/01/12 10:02:37;;;;;;;66.22;46.45;;;;;;;2.80;100.00;104054.91;5211322;28;20024;-62
2022/01/12 10:05:09;;;;;;;66.18;47.47;;;;;;;2.83;100.00;104060.84;5210993;28;20040;-59
2022/01/12 10:07:40;;;;;;;61.38;47.38;;;;;;;2.83;100.00;104055.50;5228968;28;20032;-60
2022/01/12 10:10:15;;;;;;;63.33;48.35;;;;;;;2.74;100.00;104042.91;5228764;28;20021;-62
2022/01/12 10:12:56;;;;;;;66.43;46.28;;;;;;;2.84;100.00;104064.34;5210847;28;20289;-63
2022/01/12 10:15:29;;;;;;;61.85;43.22;;;;;;;2.80;100.00;104077.09;5209213;28;20032;-61
2022/01/12 10:18:02;;;;;;;61.50;46.35;;;;;;;2.79;100.00;104066.53;5208865;28;20035;-61
2022/01/12 10:20:43;;;;;;;65.00;47.67;;;;;;;2.94;100.00;104084.78;5207306;28;20090;-61
2022/01/12 10:23:15;;;;;;;70.40;46.50;;;;;;;3.00;100.00;104070.09;5210016;28;20021;-61
2022/01/12 10:25:47;;;;;;;69.70;47.60;;;;;;;3.08;100.00;104077.47;5209916;28;20071;-62
2022/01/12 10:28:21;;;;;;;75.25;49.20;;;;;;;3.12;100.00;104087.78;5210088;28;20492;-61
2022/01/12 10:30:58;;;;;;;64.30;46.53;;;;;;;3.15;100.00;104079.53;5209667;28;20033;-61
2022/01/12 10:33:31;;;;;;;70.35;44.08;;;;;;;3.17;100.00;104074.06;5209861;28;20028;-62
2022/01/12 10:36:06;;;;;;;49.28;43.50;;;;;;;3.19;100.00;104072.91;5210173;28;20061;-61
2022/01/12 10:38:36;;;;;;;67.50;45.67;;;;;;;3.28;100.00;104071.31;5209891;28;20373;-62
2022/01/12 10:41:07;;;;;;;59.70;43.90;;;;;;;3.23;100.00;104058.34;5209546;28;20032;-62
2022/01/12 10:43:47;;;;;;;53.47;39.75;;;;;;;3.39;100.00;104079.28;5209342;28;20029;-63
2022/01/12 10:46:19;;;;;;;72.50;44.03;;;;;;;3.38;100.00;104066.88;5208565;28;20039;-63
2022/01/12 10:48:52;;;;;;;57.72;40.60;;;;;;;3.28;100.00;104061.47;5209204;28;20448;-63
2022/01/12 10:51:25;;;;;;;105.47;44.28;;;;;;;3.29;100.00;104057.81;5226869;28;20021;-63
2022/01/12 10:54:01;;;;;;;84.95;39.50;;;;;;;3.33;100.00;104053.06;5209141;28;20028;-63
2022/01/12 10:56:32;;;;;;;67.13;38.38;;;;;;;3.26;100.00;104050.06;5209469;28;20017;-63
2022/01/12 10:59:03;;;;;;;45.33;32.67;;;;;;;3.26;100.00;104058.06;5209469;28;20495;-62
2022/01/12 11:01:34;;;;;;;44.38;35.95;;;;;;;3.25;100.00;104050.19;5209220;28;20109;-63
2022/01/12 11:04:05;;;;;;;51.53;34.85;;;;;;;3.20;100.00;104053.25;5208866;28;20025;-63
2022/01/12 11:06:36;;;;;;;120.03;36.15;;;;;;;3.02;100.00;104044.13;5208134;28;20025;-60
2022/01/12 11:09:06;;;;;;;96.13;36.28;;;;;;;3.05;100.00;104067.91;5225503;28;20030;-63
2022/01/12 11:11:41;;;;;;;57.03;33.97;;;;;;;3.02;100.00;104068.16;5229547;28;20020;-63
2022/01/12 11:14:11;;;;;;;54.47;36.35;;;;;;;3.15;100.00;104076.84;5229292;28;20086;-62
2022/01/12 11:16:44;;;;;;;63.35;36.30;;;;;;;3.11;100.00;104059.38;5229210;28;20442;-62
2022/01/12 11:19:16;;;;;;;53.25;35.63;;;;;;;3.17;100.00;104066.88;5229089;28;20043;-62
2022/01/12 11:22:02;;;;;;;73.80;36.35;;;;;;;3.25;100.00;104053.72;5246724;28;20035;-63
2022/01/12 11:24:33;;;;;;;43.17;33.72;;;;;;;3.23;100.00;104050.31;5229887;28;20484;-63
2022/01/12 11:27:05;;;;;;;56.40;33.97;;;;;;;3.33;100.00;104053.91;5230624;28;20024;-62
2022/01/12 11:29:37;;;;;;;64.03;33.28;;;;;;;3.43;100.00;104058.50;5230629;28;20085;-61
2022/01/12 11:32:12;;;;;;;54.13;32.08;;;;;;;3.37;100.00;104070.53;5230071;28;20051;-63
2022/01/12 11:34:43;;;;;;;74.68;31.38;;;;;;;3.35;100.00;104057.31;5229085;28;20029;-61
2022/01/12 11:37:16;;;;;;;38.03;30.45;;;;;;;3.39;100.00;104063.25;5229085;28;20396;-62
2022/01/12 11:39:47;;;;;;;87.65;31.08;;;;;;;3.48;100.00;104058.91;5228697;28;20029;-62
2022/01/12 11:42:18;;;;;;;41.22;29.77;;;;;;;3.50;100.00;104059.63;5228697;28;20023;-62
2022/01/12 11:44:49;;;;;;;48.95;28.30;;;;;;;3.47;100.00;104073.25;5228767;28;20620;-62
2022/01/12 11:47:22;;;;;;;79.57;35.35;;;;;;;3.44;100.00;104068.19;5228637;28;20030;-62
2022/01/12 11:49:53;;;;;;;39.60;29.80;;;;;;;3.35;100.00;104076.00;5228309;28;20028;-63
2022/01/12 11:52:26;;;;;;;73.35;33.58;;;;;;;3.36;100.00;104075.03;5228250;28;20017;-62
2022/01/12 11:55:18;;;;;;;69.75;31.35;;;;;;;3.42;100.00;104084.34;5228104;28;20029;-62
2022/01/12 11:57:52;;;;;;;54.35;30.15;;;;;;;3.39;100.00;104085.47;5228485;28;20043;-62
2022/01/12 12:00:27;;;;;;;60.42;47.45;;;;;;;3.41;100.00;104082.66;5228725;28;20111;-62
2022/01/12 12:02:58;;;;;;;40.53;33.72;;;;;;;3.47;100.00;104075.94;5228481;28;20023;-62
2022/01/12 12:05:33;;;;;;;45.60;32.75;;;;;;;3.51;100.00;104064.00;5226115;28;20068;-61
2022/01/12 12:08:04;;;;;;;54.95;36.45;;;;;;;3.42;100.00;104044.28;5227883;28;20035;-63
2022/01/12 12:10:40;;;;;;;42.10;33.33;;;;;;;3.60;100.00;104063.22;5228287;28;20051;-62
2022/01/12 12:13:11;;;;;;;41.10;34.83;;;;;;;3.60;100.00;104052.53;5228271;28;20516;-63
2022/01/12 12:15:42;;;;;;;44.08;31.80;;;;;;;3.67;100.00;104067.06;5228085;28;20035;-62
2022/01/12 12:18:14;;;;;;;47.78;35.25;;;;;;;3.66;100.00;104060.03;5228397;28;20028;-62
2022/01/12 12:20:45;;;;;;;46.60;35.17;;;;;;;3.72;100.00;104065.72;5228214;28;20107;-62
2022/01/12 12:23:21;;;;;;;51.00;35.75;;;;;;;3.52;100.00;104023.81;5228123;28;20476;-61
2022/01/12 12:25:52;;;;;;;48.72;34.58;;;;;;;3.72;100.00;104062.19;5228504;28;20048;-62
2022/01/12 12:28:22;;;;;;;42.20;34.17;;;;;;;3.63;100.00;104055.81;5228168;28;20082;-62
2022/01/12 12:30:53;;;;;;;62.58;39.35;;;;;;;3.51;100.00;104053.31;5228195;28;20024;-63
2022/01/12 12:33:23;;;;;;;51.53;35.22;;;;;;;3.61;100.00;104080.97;5227704;28;20036;-62
2022/01/12 12:35:54;;;;;;;58.38;38.83;;;;;;;3.58;100.00;104066.03;5227790;28;20440;-62
2022/01/12 12:38:24;;;;;;;42.08;32.08;;;;;;;3.59;100.00;104075.75;5228057;28;20502;-62
2022/01/12 12:40:57;;;;;;;57.92;28.98;;;;;;;3.60;100.00;104079.25;5228054;28;20032;-63
2022/01/12 12:43:34;;;;;;;65.72;35.17;;;;;;;3.55;100.00;104068.97;5227635;28;20039;-62
2022/01/12 12:46:14;;;;;;;76.40;35.70;;;;;;;3.65;100.00;104071.72;5227866;28;20111;-62
2022/01/12 12:48:45;;;;;;;60.67;34.92;;;;;;;3.71;100.00;104071.19;5227970;28;20112;-62